Time;durP1;ratioP1;P1;durP2;ratioP2;P2;SDS_P1;SDS_P2;PMS_P1;PMS_P2;Temp;Humidity;BMP_temperature;BMP_pressure;BME280_temperature;BME280_humidity;BME280_pressure;Samples;Min_cycle;Max_cycle;Signal;HPM_P1;HPM_P2
2023/10/30 00:00:08;;;;;;;5.57;0.90;;;11.20;84.10;;;;;;4957841;28;20046;-89
2023/10/30 00:02:36;;;;;;;;;;;11.20;84.00;;;;;;4958729;28;20038;-90
2023/10/30 00:05:03;;;;;;;3.42;0.70;;;11.20;83.80;;;;;;4957534;28;19918;-90
2023/10/30 00:07:29;;;;;;;5.65;1.38;;;11.10;84.10;;;;;;4974108;28;20034;-89
2023/10/30 00:09:55;;;;;;;4.25;0.90;;;11.10;84.00;;;;;;4958091;28;20094;-90
2023/10/30 00:12:20;;;;;;;6.47;0.90;;;11.10;84.00;;;;;;4957516;28;20395;-89
2023/10/30 00:14:46;;;;;;;5.93;1.05;;;11.10;84.10;;;;;;4973956;28;20097;-90
2023/10/30 00:17:12;;;;;;;4.35;0.82;;;11.00;84.10;;;;;;4974011;28;20046;-90
2023/10/30 00:19:38;;;;;;;5.57;1.10;;;11.00;84.20;;;;;;4974017;28;20049;-89
2023/10/30 00:22:03;;;;;;;10.38;2.25;;;11.00;84.20;;;;;;4958139;28;20061;-91
2023/10/30 00:24:29;;;;;;;3.83;0.90;;;11.00;84.20;;;;;;4957977;28;20067;-90
2023/10/30 00:26:55;;;;;;;2.70;1.05;;;11.00;84.20;;;;;;4973785;28;20376;-91
2023/10/30 00:29:21;;;;;;;6.07;0.70;;;10.90;84.10;;;;;;4958015;28;20058;-91
2023/10/30 00:31:47;;;;;;;4.32;1.13;;;10.90;84.20;;;;;;4958106;28;20045;-90
2023/10/30 00:34:13;;;;;;;4.03;1.08;;;10.90;84.20;;;;;;4957291;28;20039;-92
2023/10/30 00:36:38;;;;;;;4.45;1.65;;;10.90;84.30;;;;;;4957995;28;20113;-91
2023/10/30 00:39:04;;;;;;;4.50;1.15;;;10.80;84.30;;;;;;4975546;28;20035;-90
2023/10/30 00:41:31;;;;;;;5.40;1.40;;;10.90;84.50;;;;;;4974439;28;20031;-92
2023/10/30 00:43:57;;;;;;;5.85;2.03;;;10.80;84.50;;;;;;4973766;28;20046;-91
2023/10/30 00:46:22;;;;;;;4.90;1.20;;;11.40;84.90;;;;;;4973041;28;20034;-90
2023/10/30 00:48:48;;;;;;;5.30;1.77;;;10.80;84.60;;;;;;4972916;28;20047;-89
2023/10/30 00:51:14;;;;;;;6.53;2.05;;;10.80;84.70;;;;;;4957485;28;20085;-90
2023/10/30 00:53:41;;;;;;;5.93;1.55;;;10.80;84.90;;;;;;4957635;28;20042;-92
2023/10/30 00:56:07;;;;;;;3.97;1.25;;;10.80;85.00;;;;;;4973758;28;20035;-91
2023/10/30 00:58:34;;;;;;;3.80;1.25;;;10.80;85.50;;;;;;4973425;28;20046;-91
2023/10/30 01:01:00;;;;;;;4.47;1.23;;;11.30;85.40;;;;;;4973267;28;20043;-90
2023/10/30 01:03:25;;;;;;;6.18;1.58;;;10.80;85.00;;;;;;4957698;28;20057;-90
2023/10/30 01:05:58;;;;;;;5.40;1.42;;;10.80;85.00;;;;;;4958629;28;20117;-91
2023/10/30 01:08:25;;;;;;;3.35;1.17;;;10.80;84.90;;;;;;4958819;28;20046;-92
2023/10/30 01:10:52;;;;;;;4.70;1.50;;;10.80;84.90;;;;;;4956761;28;20090;-89
2023/10/30 01:13:18;;;;;;;3.78;1.48;;;10.70;84.80;;;;;;4955182;28;20050;-92
2023/10/30 01:15:43;;;;;;;3.30;1.65;;;10.70;84.80;;;;;;4958156;28;20043;-91
2023/10/30 01:18:09;;;;;;;3.97;1.20;;;10.70;84.70;;;;;;4957219;28;20062;-90
2023/10/30 01:20:39;;;;;;;3.25;1.17;;;10.80;84.80;;;;;;4974710;28;20038;-89
2023/10/30 01:23:04;;;;;;;5.32;1.35;;;10.70;84.70;;;;;;4974204;28;20039;-93
2023/10/30 01:25:30;;;;;;;3.95;1.20;;;10.70;84.70;;;;;;4972824;28;20041;-91
2023/10/30 01:27:55;;;;;;;6.85;1.85;;;10.70;84.70;;;;;;4957379;28;20046;-91
2023/10/30 01:30:21;;;;;;;3.83;1.25;;;10.70;84.60;;;;;;4956912;28;20034;-91
2023/10/30 01:32:47;;;;;;;5.90;1.50;;;11.00;84.90;;;;;;4956714;28;20069;-91
2023/10/30 01:35:12;;;;;;;4.40;1.40;;;10.70;84.70;;;;;;4956734;28;20047;-89
2023/10/30 01:37:38;;;;;;;4.85;1.50;;;10.70;84.80;;;;;;4956653;28;20034;-91
2023/10/30 01:40:05;;;;;;;4.72;1.38;;;10.70;84.90;;;;;;4956276;28;20126;-89
2023/10/30 01:42:31;;;;;;;5.65;1.70;;;10.60;84.90;;;;;;4956744;28;20039;-91
2023/10/30 01:44:58;;;;;;;5.85;1.63;;;10.70;85.00;;;;;;4956509;28;20134;-90
2023/10/30 01:47:25;;;;;;;6.22;1.33;;;10.70;85.00;;;;;;4956787;28;20109;-91
2023/10/30 01:49:52;;;;;;;5.35;1.73;;;10.70;85.00;;;;;;4956863;28;20046;-92
2023/10/30 01:52:18;;;;;;;4.22;1.52;;;10.60;85.00;;;;;;4973267;28;20435;-90
2023/10/30 01:54:49;;;;;;;6.10;1.73;;;10.60;85.10;;;;;;4972146;28;20031;-91
2023/10/30 01:57:17;;;;;;;4.85;1.55;;;10.70;85.10;;;;;;4971323;28;20089;-91
2023/10/30 01:59:44;;;;;;;7.35;1.92;;;10.60;85.10;;;;;;4956651;28;20070;-92
2023/10/30 02:02:10;;;;;;;4.45;1.42;;;10.60;85.10;;;;;;4956742;28;20097;-91
2023/10/30 02:04:36;;;;;;;6.22;1.80;;;10.60;85.10;;;;;;4956338;28;20121;-93
2023/10/30 02:07:03;;;;;;;7.05;1.60;;;10.60;85.10;;;;;;4972353;28;20066;-90
2023/10/30 02:09:30;;;;;;;6.10;1.75;;;10.60;85.10;;;;;;4972354;28;20046;-93
2023/10/30 02:11:57;;;;;;;6.07;1.45;;;10.60;85.10;;;;;;4957030;28;20162;-91
2023/10/30 02:14:23;;;;;;;5.22;1.60;;;10.60;85.20;;;;;;4956394;28;20042;-91
2023/10/30 02:16:49;;;;;;;5.97;1.70;;;10.80;85.40;;;;;;4973063;28;20046;-92
2023/10/30 02:19:23;;;;;;;6.90;2.05;;;10.50;85.70;;;;;;4956593;28;20039;-91
2023/10/30 02:21:53;;;;;;;5.72;1.70;;;10.60;85.40;;;;;;4958411;28;20046;-91
2023/10/30 02:24:19;;;;;;;8.23;1.65;;;10.50;85.30;;;;;;4957188;28;20050;-91
2023/10/30 02:26:49;;;;;;;5.55;1.67;;;10.50;85.40;;;;;;4956000;28;20042;-91
2023/10/30 02:29:15;;;;;;;7.95;1.52;;;10.50;85.50;;;;;;4972516;28;20396;-91
2023/10/30 02:31:41;;;;;;;5.53;1.65;;;10.50;85.50;;;;;;4956558;28;20510;-91
2023/10/30 02:34:07;;;;;;;7.30;1.63;;;10.60;85.60;;;;;;4956659;28;20093;-91
2023/10/30 02:36:32;;;;;;;5.22;1.80;;;10.80;85.80;;;;;;4964062;28;20035;-92
2023/10/30 02:38:58;;;;;;;6.05;1.70;;;10.50;85.70;;;;;;4956416;28;20443;-92
2023/10/30 02:41:26;;;;;;;8.27;1.80;;;10.50;85.80;;;;;;4956277;28;20035;-91
2023/10/30 02:43:52;;;;;;;8.07;1.88;;;10.40;85.80;;;;;;4956158;28;20043;-91
2023/10/30 02:46:18;;;;;;;9.55;2.65;;;10.50;86.00;;;;;;4972339;28;20126;-91
2023/10/30 02:48:43;;;;;;;7.65;2.05;;;10.40;85.90;;;;;;4958199;28;20035;-90
2023/10/30 02:51:09;;;;;;;9.15;1.52;;;10.40;85.90;;;;;;4959339;28;20101;-91
2023/10/30 02:53:34;;;;;;;7.53;1.50;;;10.40;85.90;;;;;;4959824;28;20410;-92
2023/10/30 02:56:00;;;;;;;8.85;1.77;;;10.40;86.00;;;;;;4959890;28;20043;-91
2023/10/30 02:58:26;;;;;;;7.75;1.75;;;10.40;86.00;;;;;;4975934;28;20035;-92
2023/10/30 03:00:55;;;;;;;11.38;2.20;;;10.40;86.00;;;;;;4959375;28;20505;-91
2023/10/30 03:03:20;;;;;;;10.73;2.03;;;10.40;86.10;;;;;;4960480;28;20041;-89
2023/10/30 03:05:46;;;;;;;5.72;1.38;;;10.40;86.20;;;;;;4978160;28;20039;-91
2023/10/30 03:08:11;;;;;;;9.07;1.80;;;10.30;86.20;;;;;;4976478;28;20557;-91
2023/10/30 03:10:37;;;;;;;7.35;2.28;;;10.30;86.20;;;;;;4959914;28;20125;-93
2023/10/30 03:13:02;;;;;;;9.25;2.15;;;10.30;86.20;;;;;;4961978;28;20035;-90
2023/10/30 03:15:28;;;;;;;5.18;1.65;;;10.40;86.40;;;;;;4961201;28;20030;-92
2023/10/30 03:17:54;;;;;;;9.70;1.98;;;10.40;86.40;;;;;;4975938;28;20038;-91
2023/10/30 03:20:19;;;;;;;8.68;2.55;;;10.40;86.40;;;;;;4959030;28;20066;-92
2023/10/30 03:22:45;;;;;;;10.90;1.98;;;10.30;86.40;;;;;;4959416;28;20517;-89
2023/10/30 03:25:10;;;;;;;7.63;1.67;;;10.40;86.50;;;;;;4974954;28;20039;-94
2023/10/30 03:27:36;;;;;;;8.73;1.67;;;10.30;86.40;;;;;;4975411;28;20869;-92
2023/10/30 03:30:02;;;;;;;9.63;2.83;;;10.30;86.50;;;;;;4975159;28;20050;-91
2023/10/30 03:32:29;;;;;;;6.78;1.33;;;10.30;86.70;;;;;;4975326;28;20045;-92
2023/10/30 03:34:54;;;;;;;9.07;2.15;;;10.30;86.50;;;;;;4958487;28;20513;-92
2023/10/30 03:37:20;;;;;;;6.88;1.60;;;10.30;86.50;;;;;;4959387;28;20035;-92
2023/10/30 03:39:46;;;;;;;9.48;2.17;;;10.80;86.80;;;;;;4959040;28;20078;-92
2023/10/30 03:42:12;;;;;;;8.45;2.05;;;10.30;86.50;;;;;;4975055;28;20074;-92
2023/10/30 03:44:38;;;;;;;9.85;1.70;;;10.30;86.50;;;;;;4975331;28;20506;-90
2023/10/30 03:47:03;;;;;;;4.55;1.52;;;10.30;86.50;;;;;;4959148;28;20059;-90
2023/10/30 03:49:29;;;;;;;7.93;1.80;;;10.40;86.60;;;;;;4974488;28;20049;-92
2023/10/30 03:51:54;;;;;;;7.32;1.67;;;10.30;86.60;;;;;;4975279;28;20344;-91
2023/10/30 03:54:22;;;;;;;7.63;2.10;;;10.90;87.00;;;;;;4959182;28;20049;-93
2023/10/30 03:56:47;;;;;;;10.18;2.20;;;10.30;86.60;;;;;;4958753;28;20046;-89
2023/10/30 03:59:15;;;;;;;10.07;1.70;;;10.30;86.60;;;;;;4958393;28;20085;-92
2023/10/30 04:01:40;;;;;;;8.00;1.85;;;10.30;86.60;;;;;;4958829;28;20475;-93
2023/10/30 04:04:07;;;;;;;7.15;1.40;;;10.40;86.60;;;;;;4951654;28;20118;-92
2023/10/30 04:06:34;;;;;;;8.52;1.80;;;10.40;86.60;;;;;;4975197;28;20034;-92
2023/10/30 04:09:03;;;;;;;7.35;3.17;;;10.30;86.50;;;;;;4958003;28;20043;-93
2023/10/30 04:11:29;;;;;;;11.13;2.35;;;10.30;86.60;;;;;;4959035;28;20113;-90
2023/10/30 04:13:54;;;;;;;6.43;1.77;;;10.40;86.60;;;;;;4958840;28;20129;-91
2023/10/30 04:16:20;;;;;;;12.35;2.10;;;10.60;86.70;;;;;;4958253;28;20522;-92
2023/10/30 04:18:46;;;;;;;7.50;1.50;;;10.40;86.60;;;;;;4957981;28;20046;-92
2023/10/30 04:21:12;;;;;;;6.82;1.98;;;10.30;86.60;;;;;;4958479;28;20046;-93
2023/10/30 04:23:38;;;;;;;10.07;2.80;;;10.40;86.60;;;;;;4975031;28;20034;-92
2023/10/30 04:26:04;;;;;;;8.65;1.90;;;10.40;86.60;;;;;;4974705;28;20089;-92
2023/10/30 04:28:30;;;;;;;8.30;1.75;;;10.30;86.50;;;;;;4958593;28;20394;-92
2023/10/30 04:30:55;;;;;;;7.53;1.90;;;10.50;86.60;;;;;;4958138;28;20133;-91
2023/10/30 04:33:21;;;;;;;9.38;1.98;;;10.40;86.50;;;;;;4957806;28;20041;-92
2023/10/30 04:35:47;;;;;;;9.27;2.00;;;10.40;86.50;;;;;;4958297;28;20046;-91
2023/10/30 04:38:12;;;;;;;8.57;2.22;;;10.30;86.40;;;;;;4974265;28;20035;-93
2023/10/30 04:40:38;;;;;;;9.05;2.40;;;10.30;86.40;;;;;;4974004;28;20054;-93
2023/10/30 04:43:03;;;;;;;9.68;2.00;;;10.90;86.80;;;;;;4974203;28;20047;-93
2023/10/30 04:45:29;;;;;;;11.45;1.90;;;10.40;86.40;;;;;;4958299;28;20065;-92
2023/10/30 04:47:55;;;;;;;8.73;2.33;;;10.40;86.50;;;;;;4973817;28;20061;-93
2023/10/30 04:50:20;;;;;;;8.85;1.60;;;10.30;86.40;;;;;;4957847;28;20129;-92
2023/10/30 04:52:47;;;;;;;8.90;1.88;;;10.30;86.40;;;;;;4958193;28;20035;-94
2023/10/30 04:55:12;;;;;;;9.82;2.42;;;10.30;86.30;;;;;;4951853;28;20046;-91
2023/10/30 04:57:38;;;;;;;9.15;1.70;;;10.40;86.40;;;;;;4976806;28;20031;-93
2023/10/30 05:00:07;;;;;;;10.35;1.60;;;10.30;86.40;;;;;;4958079;28;20046;-93
2023/10/30 05:02:32;;;;;;;11.63;1.88;;;10.40;86.40;;;;;;4957679;28;20130;-93
2023/10/30 05:04:58;;;;;;;12.02;1.90;;;10.30;86.30;;;;;;4960553;28;20073;-90
2023/10/30 05:07:23;;;;;;;7.80;2.00;;;10.30;86.40;;;;;;4979764;28;20038;-91
2023/10/30 05:09:49;;;;;;;8.70;1.88;;;10.30;86.40;;;;;;4957466;28;20065;-92
2023/10/30 05:12:15;;;;;;;10.85;2.20;;;10.30;86.40;;;;;;4973127;28;20034;-93
2023/10/30 05:14:40;;;;;;;9.43;1.73;;;10.30;86.40;;;;;;4957552;28;20113;-92
2023/10/30 05:17:06;;;;;;;10.68;2.55;;;10.30;86.40;;;;;;4957220;28;20035;-91
2023/10/30 05:19:32;;;;;;;12.77;2.20;;;10.30;86.40;;;;;;4957657;28;20513;-91
2023/10/30 05:21:57;;;;;;;6.97;1.73;;;10.30;86.50;;;;;;4957787;28;20046;-94
2023/10/30 05:24:23;;;;;;;7.32;2.25;;;10.60;86.70;;;;;;4973595;28;20046;-93
2023/10/30 05:26:49;;;;;;;10.45;2.63;;;10.30;86.50;;;;;;4973671;28;20178;-93
2023/10/30 05:29:15;;;;;;;8.15;1.55;;;10.30;86.60;;;;;;4957165;28;20487;-93
2023/10/30 05:31:42;;;;;;;9.75;2.00;;;10.30;86.50;;;;;;4956828;28;20443;-93
2023/10/30 05:34:08;;;;;;;9.23;1.98;;;10.30;86.60;;;;;;4973245;28;20117;-93
2023/10/30 05:36:34;;;;;;;7.95;2.10;;;10.20;86.60;;;;;;4957213;28;20546;-92
2023/10/30 05:39:00;;;;;;;8.07;1.95;;;10.20;86.70;;;;;;4956894;28;20035;-93
2023/10/30 05:41:26;;;;;;;6.97;1.60;;;10.20;86.70;;;;;;4957422;28;20539;-92
2023/10/30 05:43:52;;;;;;;8.98;2.10;;;10.20;86.80;;;;;;4958049;28;20146;-91
2023/10/30 05:46:18;;;;;;;10.30;1.95;;;10.20;86.90;;;;;;4955000;28;20031;-92
2023/10/30 05:48:44;;;;;;;13.98;2.30;;;10.20;86.80;;;;;;4972562;28;20046;-94
2023/10/30 05:51:10;;;;;;;11.07;2.10;;;10.50;87.10;;;;;;4972859;28;20554;-94
2023/10/30 05:53:36;;;;;;;12.23;2.10;;;10.20;87.00;;;;;;4973097;28;20043;-91
2023/10/30 05:56:01;;;;;;;8.88;2.17;;;10.20;87.10;;;;;;4973026;28;20051;-92
2023/10/30 05:58:27;;;;;;;12.77;2.60;;;10.20;87.10;;;;;;4972688;28;20483;-90
2023/10/30 06:00:53;;;;;;;9.93;2.30;;;10.20;87.20;;;;;;4955895;28;20684;-90
2023/10/30 06:03:18;;;;;;;12.15;2.45;;;10.20;87.20;;;;;;4956550;28;20047;-91
2023/10/30 06:05:44;;;;;;;7.07;1.90;;;10.10;87.20;;;;;;4956947;28;20133;-90
2023/10/30 06:08:10;;;;;;;7.22;2.28;;;10.10;87.30;;;;;;4956937;28;20130;-90
2023/10/30 06:10:38;;;;;;;11.88;2.58;;;10.10;87.30;;;;;;4972782;28;20126;-90
2023/10/30 06:13:04;;;;;;;12.05;2.30;;;10.20;87.50;;;;;;4957062;28;20039;-91
2023/10/30 06:15:30;;;;;;;8.98;2.13;;;10.20;87.50;;;;;;4956751;28;20038;-88
2023/10/30 06:17:56;;;;;;;9.73;2.15;;;10.20;87.60;;;;;;4972988;28;20521;-92
2023/10/30 06:20:22;;;;;;;10.65;2.20;;;10.20;87.60;;;;;;4972816;28;20048;-91
2023/10/30 06:22:48;;;;;;;9.38;2.17;;;10.20;87.70;;;;;;4958852;28;20039;-89
2023/10/30 06:25:14;;;;;;;8.55;2.40;;;10.20;87.80;;;;;;4960518;28;20042;-91
2023/10/30 06:27:41;;;;;;;10.25;2.63;;;10.20;87.90;;;;;;4960557;28;20039;-91
2023/10/30 06:30:08;;;;;;;10.07;1.98;;;10.10;88.00;;;;;;4976169;28;20051;-86
2023/10/30 06:32:34;;;;;;;10.60;2.40;;;10.20;88.10;;;;;;4977102;28;20034;-91
2023/10/30 06:35:00;;;;;;;14.00;2.55;;;10.20;88.10;;;;;;4976757;28;20039;-91
2023/10/30 06:37:25;;;;;;;9.25;2.17;;;10.20;88.20;;;;;;4960435;28;20189;-90
2023/10/30 06:39:51;;;;;;;9.75;1.92;;;10.20;88.30;;;;;;4976679;28;20503;-90
2023/10/30 06:42:16;;;;;;;8.70;2.20;;;10.20;88.40;;;;;;4976004;28;20050;-90
2023/10/30 06:44:42;;;;;;;8.27;2.15;;;10.20;88.50;;;;;;4959850;28;20078;-91
2023/10/30 06:47:07;;;;;;;10.80;2.22;;;10.20;88.60;;;;;;4976071;28;20077;-91
2023/10/30 06:49:33;;;;;;;13.55;2.83;;;10.50;88.90;;;;;;4975585;28;20042;-89
2023/10/30 06:52:00;;;;;;;7.70;2.15;;;10.20;88.80;;;;;;4976261;28;20101;-91
2023/10/30 06:54:26;;;;;;;13.60;2.63;;;10.30;89.00;;;;;;4959926;28;20045;-90
2023/10/30 06:56:52;;;;;;;8.07;3.00;;;10.30;89.00;;;;;;4976032;28;20050;-88
2023/10/30 06:59:18;;;;;;;10.05;2.60;;;10.50;89.30;;;;;;4959529;28;20088;-89
2023/10/30 07:01:46;;;;;;;10.40;2.30;;;10.30;89.20;;;;;;4977484;28;20039;-91
2023/10/30 07:04:13;;;;;;;11.35;2.05;;;10.40;89.30;;;;;;4960407;28;20574;-89
2023/10/30 07:06:40;;;;;;;8.77;2.10;;;10.40;89.40;;;;;;4959908;28;20085;-90
2023/10/30 07:09:09;;;;;;;11.38;2.53;;;10.90;89.60;;;;;;4960492;28;20046;-90
2023/10/30 07:11:35;;;;;;;11.10;2.60;;;10.40;89.30;;;;;;4959493;28;20043;-87
2023/10/30 07:14:02;;;;;;;7.40;2.45;;;10.50;89.50;;;;;;4959678;28;20117;-91
2023/10/30 07:16:31;;;;;;;12.00;2.50;;;10.60;89.50;;;;;;4975336;28;20038;-90
2023/10/30 07:18:58;;;;;;;10.73;2.47;;;10.50;89.40;;;;;;4959678;28;20034;-91
2023/10/30 07:21:24;;;;;;;13.70;3.10;;;10.50;89.50;;;;;;4959585;28;20043;-90
2023/10/30 07:23:49;;;;;;;13.45;2.85;;;10.60;89.50;;;;;;4959829;28;20046;-91
2023/10/30 07:26:16;;;;;;;7.50;2.00;;;10.60;89.50;;;;;;4978226;28;20043;-92
2023/10/30 07:28:43;;;;;;;9.93;2.83;;;10.70;89.60;;;;;;4955749;28;20030;-91
2023/10/30 07:31:08;;;;;;;11.57;2.40;;;10.60;89.70;;;;;;4970150;28;20740;-90
2023/10/30 07:33:34;;;;;;;11.95;2.85;;;10.70;89.80;;;;;;4974860;28;20043;-90
2023/10/30 07:36:01;;;;;;;16.25;3.60;;;10.70;89.90;;;;;;4958989;28;20035;-90
2023/10/30 07:38:30;;;;;;;11.55;2.65;;;10.80;90.00;;;;;;4959706;28;20447;-90
2023/10/30 07:40:56;;;;;;;10.85;2.38;;;10.80;90.00;;;;;;4975119;28;20046;-92
2023/10/30 07:43:22;;;;;;;15.00;2.30;;;10.90;90.10;;;;;;4959489;28;20043;-91
2023/10/30 07:45:50;;;;;;;9.90;2.15;;;10.90;90.00;;;;;;4959530;28;20031;-91
2023/10/30 07:48:16;;;;;;;10.40;3.08;;;11.10;90.10;;;;;;4958898;28;20043;-91
2023/10/30 07:50:45;;;;;;;11.55;2.03;;;11.20;90.10;;;;;;4959051;28;20129;-91
2023/10/30 07:53:11;;;;;;;10.40;2.40;;;11.20;90.10;;;;;;4959693;28;20070;-90
2023/10/30 07:55:38;;;;;;;9.88;3.00;;;11.30;90.10;;;;;;4973360;28;20121;-91
2023/10/30 07:58:07;;;;;;;7.15;2.33;;;11.50;89.80;;;;;;4974564;28;20049;-92
2023/10/30 08:00:34;;;;;;;10.60;2.58;;;11.60;89.60;;;;;;4970679;28;20070;-91
2023/10/30 08:03:00;;;;;;;10.45;2.03;;;11.70;89.40;;;;;;4957490;28;20552;-90
2023/10/30 08:05:30;;;;;;;11.10;2.63;;;11.80;89.20;;;;;;4974162;28;20047;-89
2023/10/30 08:07:56;;;;;;;6.60;2.17;;;11.90;88.70;;;;;;4958413;28;20047;-88
2023/10/30 08:10:22;;;;;;;8.00;1.80;;;12.00;88.40;;;;;;4958312;28;20050;-89
2023/10/30 08:12:47;;;;;;;10.43;2.30;;;12.30;88.40;;;;;;4974941;28;20126;-91
2023/10/30 08:15:13;;;;;;;11.82;2.42;;;12.60;88.10;;;;;;4958736;28;20070;-91
2023/10/30 08:17:38;;;;;;;9.43;2.35;;;12.40;87.70;;;;;;4957660;28;20046;-90
2023/10/30 08:20:04;;;;;;;9.45;2.13;;;12.50;87.20;;;;;;4967014;28;20046;-91
2023/10/30 08:22:32;;;;;;;11.38;2.42;;;12.60;86.90;;;;;;4974752;28;20163;-89
2023/10/30 08:24:58;;;;;;;8.68;2.05;;;12.70;86.60;;;;;;4974133;28;20053;-89
2023/10/30 08:27:24;;;;;;;9.40;2.97;;;12.90;86.30;;;;;;4974695;28;20050;-90
2023/10/30 08:29:50;;;;;;;10.85;2.58;;;13.00;86.00;;;;;;4974518;28;20043;-90
2023/10/30 08:32:15;;;;;;;7.78;1.85;;;13.10;85.60;;;;;;4974741;28;20054;-89
2023/10/30 08:34:41;;;;;;;10.95;2.20;;;13.30;85.20;;;;;;4956154;28;20050;-91
2023/10/30 08:37:07;;;;;;;10.75;2.30;;;13.70;84.30;;;;;;4939264;29;20043;-91
2023/10/30 08:39:32;;;;;;;9.27;2.20;;;14.00;84.20;;;;;;4954966;29;20034;-89
2023/10/30 08:41:58;;;;;;;7.78;2.63;;;13.90;83.70;;;;;;4955418;29;20373;-90
2023/10/30 08:44:24;;;;;;;8.88;2.33;;;13.70;83.30;;;;;;4938975;29;20086;-88
2023/10/30 08:46:50;;;;;;;9.18;2.60;;;14.10;83.20;;;;;;4955327;29;20065;-88
2023/10/30 08:49:16;;;;;;;7.70;2.05;;;13.80;82.50;;;;;;4955182;29;20058;-90
2023/10/30 08:51:42;;;;;;;6.38;1.88;;;13.90;83.00;;;;;;4954835;29;20039;-90
2023/10/30 08:54:08;;;;;;;8.38;2.10;;;13.90;82.30;;;;;;4954806;28;20046;-90
2023/10/30 08:56:34;;;;;;;6.28;1.95;;;13.90;82.50;;;;;;4968356;28;20049;-88
2023/10/30 08:58:59;;;;;;;5.93;2.08;;;14.20;81.90;;;;;;4957671;28;20117;-89
2023/10/30 09:01:26;;;;;;;11.27;2.45;;;14.10;81.30;;;;;;4975630;28;20122;-90
2023/10/30 09:03:52;;;;;;;6.55;1.58;;;14.10;81.20;;;;;;4973979;28;20077;-90
2023/10/30 09:06:18;;;;;;;8.30;1.95;;;14.40;81.20;;;;;;4957785;28;20042;-90
2023/10/30 09:08:44;;;;;;;9.02;2.15;;;14.20;80.80;;;;;;4974870;28;20514;-91
2023/10/30 09:11:10;;;;;;;7.68;2.47;;;14.70;80.90;;;;;;4957683;28;20034;-90
2023/10/30 09:13:35;;;;;;;8.90;2.15;;;14.30;80.50;;;;;;4957750;28;20053;-90
2023/10/30 09:16:01;;;;;;;7.25;2.08;;;14.30;80.30;;;;;;4957444;28;20130;-90
2023/10/30 09:18:26;;;;;;;10.43;2.40;;;14.40;80.30;;;;;;4954215;28;20035;-89
2023/10/30 09:20:52;;;;;;;7.53;2.05;;;14.90;80.20;;;;;;4973855;28;20043;-90
2023/10/30 09:23:18;;;;;;;7.05;2.10;;;14.40;80.00;;;;;;4957359;28;20043;-91
2023/10/30 09:25:43;;;;;;;11.45;2.45;;;14.50;80.20;;;;;;4957372;28;20070;-92
2023/10/30 09:28:09;;;;;;;11.43;2.58;;;14.40;80.30;;;;;;4957673;28;20070;-92
2023/10/30 09:30:34;;;;;;;9.32;2.33;;;14.50;80.60;;;;;;4972817;28;20034;-90
2023/10/30 09:33:00;;;;;;;6.85;1.83;;;14.60;80.60;;;;;;4938664;29;20042;-92
2023/10/30 09:35:30;;;;;;;10.32;2.13;;;14.60;80.20;;;;;;4972839;28;20495;-91
2023/10/30 09:37:59;;;;;;;7.15;2.13;;;14.60;79.80;;;;;;4973450;28;20054;-91
2023/10/30 09:40:28;;;;;;;8.93;1.73;;;14.60;79.40;;;;;;4957343;28;20039;-91
2023/10/30 09:42:54;;;;;;;10.27;2.47;;;14.60;79.10;;;;;;4958041;28;20043;-92
2023/10/30 09:45:22;;;;;;;7.63;1.80;;;14.60;78.60;;;;;;4957638;28;20077;-91
2023/10/30 09:47:52;;;;;;;7.18;1.85;;;14.60;78.60;;;;;;4962918;28;20153;-89
2023/10/30 09:50:18;;;;;;;11.15;2.65;;;14.60;78.30;;;;;;4953148;29;20062;-88
2023/10/30 09:52:48;;;;;;;7.18;1.92;;;14.60;78.10;;;;;;4953071;29;20043;-89
2023/10/30 09:55:17;;;;;;;10.98;2.63;;;14.60;78.40;;;;;;4940048;28;20510;-91
2023/10/30 09:57:43;;;;;;;13.23;2.03;;;14.60;78.70;;;;;;4948214;28;20045;-89
2023/10/30 10:00:09;;;;;;;7.93;2.40;;;14.60;78.70;;;;;;4973050;28;20473;-90
2023/10/30 10:02:35;;;;;;;10.77;3.15;;;14.50;78.40;;;;;;4956887;28;20051;-91
2023/10/30 10:05:01;;;;;;;8.23;2.00;;;14.50;78.30;;;;;;4956464;28;20053;-88
2023/10/30 10:07:26;;;;;;;8.90;1.80;;;14.40;78.10;;;;;;4956147;28;20046;-90
2023/10/30 10:10:00;;;;;;;9.77;2.15;;;14.80;78.40;;;;;;4956942;28;20035;-90
2023/10/30 10:12:26;;;;;;;9.02;2.08;;;14.40;78.50;;;;;;4956903;28;20074;-90
2023/10/30 10:14:51;;;;;;;8.85;2.03;;;14.30;79.00;;;;;;4946791;28;20133;-89
2023/10/30 10:17:17;;;;;;;9.45;2.35;;;14.20;79.20;;;;;;4971912;28;20081;-89
2023/10/30 10:19:46;;;;;;;8.95;2.15;;;14.20;79.50;;;;;;4956343;28;20129;-88
2023/10/30 10:22:29;;;;;;;8.23;1.63;;;14.20;79.90;;;;;;4948517;28;20608;-87
2023/10/30 10:24:55;;;;;;;11.10;2.40;;;14.10;79.80;;;;;;4955762;28;20057;-88
2023/10/30 10:27:24;;;;;;;8.80;2.22;;;14.10;79.90;;;;;;4972261;28;20395;-88
2023/10/30 10:29:54;;;;;;;10.35;2.35;;;14.10;80.10;;;;;;4956231;28;20038;-88
2023/10/30 10:32:27;;;;;;;10.90;2.22;;;14.10;80.20;;;;;;4972707;28;20098;-89
2023/10/30 10:34:57;;;;;;;13.15;2.90;;;14.00;80.10;;;;;;4956873;28;20038;-90
2023/10/30 10:37:23;;;;;;;15.23;3.38;;;14.00;80.20;;;;;;4956767;28;20356;-90
2023/10/30 10:39:53;;;;;;;10.65;2.38;;;14.00;80.40;;;;;;4955923;28;20141;-90
2023/10/30 10:42:21;;;;;;;11.65;2.75;;;14.00;80.50;;;;;;4972424;28;20054;-90
2023/10/30 10:44:52;;;;;;;10.57;2.33;;;13.90;80.80;;;;;;4956177;28;20042;-89
2023/10/30 10:47:18;;;;;;;8.93;2.00;;;13.90;81.00;;;;;;4972042;28;20046;-90
2023/10/30 10:49:44;;;;;;;12.63;2.40;;;13.90;81.20;;;;;;4955568;28;20369;-87
2023/10/30 10:52:12;;;;;;;15.38;3.13;;;14.50;81.70;;;;;;4972979;28;20118;-90
2023/10/30 10:54:49;;;;;;;9.55;2.35;;;14.00;81.30;;;;;;4955720;28;20039;-88
2023/10/30 10:57:18;;;;;;;11.73;2.60;;;14.00;81.40;;;;;;4955836;28;20047;-86
2023/10/30 10:59:54;;;;;;;10.73;2.47;;;14.00;81.70;;;;;;4955847;28;20184;-88
2023/10/30 11:02:28;;;;;;;11.02;2.65;;;14.10;81.90;;;;;;4956035;28;20496;-88
2023/10/30 11:04:54;;;;;;;10.50;2.58;;;14.10;82.00;;;;;;4971521;28;20118;-87
2023/10/30 11:07:35;;;;;;;10.45;2.58;;;14.00;81.70;;;;;;4971771;28;20038;-90
2023/10/30 11:10:09;;;;;;;8.25;2.28;;;14.10;81.50;;;;;;4956271;28;20050;-88
2023/10/30 11:13:01;;;;;;;10.93;2.35;;;14.00;81.40;;;;;;4953412;28;20376;-90
2023/10/30 11:15:32;;;;;;;8.18;1.77;;;14.10;81.60;;;;;;4975841;28;20043;-89
2023/10/30 11:18:15;;;;;;;10.27;2.60;;;14.10;81.90;;;;;;4974857;28;20043;-88
2023/10/30 11:20:44;;;;;;;9.57;2.13;;;14.10;81.60;;;;;;4974752;28;20043;-89
2023/10/30 11:23:12;;;;;;;11.15;2.78;;;14.00;81.50;;;;;;4957405;28;20054;-89
2023/10/30 11:26:11;;;;;;;9.27;2.22;;;14.00;81.40;;;;;;4970380;28;20051;-89
2023/10/30 11:28:35;;;;;;;8.18;2.10;;;14.00;81.60;;;;;;4967951;28;20046;-91
2023/10/30 11:31:06;;;;;;;8.00;1.50;;;14.00;81.20;;;;;;4958657;28;20518;-89
2023/10/30 11:33:31;;;;;;;9.63;2.75;;;14.00;81.30;;;;;;4958786;28;20035;-89
2023/10/30 11:36:33;;;;;;;13.57;2.28;;;14.50;81.90;;;;;;4958567;28;20050;-89
2023/10/30 11:38:58;;;;;;;7.50;2.58;;;14.00;82.00;;;;;;4968715;28;20051;-86
2023/10/30 11:41:24;;;;;;;13.40;2.90;;;14.00;82.20;;;;;;4958971;28;20510;-90
2023/10/30 11:43:50;;;;;;;6.45;1.70;;;14.00;82.10;;;;;;4958606;28;20483;-89
2023/10/30 11:46:21;;;;;;;16.33;3.00;;;14.00;82.00;;;;;;4974054;28;20066;-88
2023/10/30 11:48:48;;;;;;;11.35;2.47;;;14.00;81.90;;;;;;4952696;28;20062;-88
2023/10/30 11:51:14;;;;;;;13.43;2.30;;;14.00;81.80;;;;;;4958545;28;20039;-88
2023/10/30 11:53:46;;;;;;;11.43;2.58;;;14.00;81.90;;;;;;4958521;28;20043;-88
2023/10/30 11:56:13;;;;;;;10.00;2.10;;;14.00;81.80;;;;;;4958473;28;20117;-89
2023/10/30 11:58:40;;;;;;;10.77;2.70;;;14.00;81.90;;;;;;4974370;28;20049;-89
2023/10/30 12:01:08;;;;;;;9.10;2.03;;;14.00;82.00;;;;;;4958212;28;20042;-89
2023/10/30 12:03:34;;;;;;;10.85;3.33;;;14.00;82.00;;;;;;4958070;28;20046;-89
2023/10/30 12:06:00;;;;;;;7.85;2.00;;;14.00;82.10;;;;;;4958431;28;20050;-89
2023/10/30 12:08:26;;;;;;;11.75;2.40;;;13.90;82.20;;;;;;4974649;28;20531;-90
2023/10/30 12:10:52;;;;;;;10.23;2.20;;;13.90;82.30;;;;;;4958210;28;20035;-88
2023/10/30 12:13:18;;;;;;;8.75;2.20;;;13.90;82.40;;;;;;4974184;28;20035;-87
2023/10/30 12:15:44;;;;;;;11.80;2.35;;;13.90;82.50;;;;;;4958465;28;20102;-89
2023/10/30 12:18:10;;;;;;;11.85;2.80;;;13.90;82.60;;;;;;4958404;28;20076;-89
2023/10/30 12:20:36;;;;;;;11.38;2.25;;;13.90;82.40;;;;;;4953580;28;20381;-88
2023/10/30 12:23:01;;;;;;;10.48;2.13;;;13.90;82.30;;;;;;4954511;29;20039;-88
2023/10/30 12:25:28;;;;;;;10.15;2.17;;;13.90;82.50;;;;;;4939219;29;20043;-89
2023/10/30 12:28:04;;;;;;;9.95;2.17;;;13.90;82.70;;;;;;4974554;28;20065;-88
2023/10/30 12:30:34;;;;;;;12.20;2.90;;;13.90;82.80;;;;;;4974070;28;20051;-89
2023/10/30 12:33:01;;;;;;;7.53;2.10;;;13.90;83.00;;;;;;4958079;28;20049;-89
2023/10/30 12:35:27;;;;;;;12.73;2.45;;;14.00;83.20;;;;;;4958308;28;20042;-90
2023/10/30 12:37:52;;;;;;;12.02;2.38;;;14.00;83.30;;;;;;4968040;28;20038;-90
2023/10/30 12:40:18;;;;;;;11.90;3.15;;;14.00;83.30;;;;;;4958302;28;20487;-90